createdAt,value
2019-01-20T00:00:47.730Z,54.17
2019-01-20T00:03:16.850Z,53.17
2019-01-20T00:05:45.531Z,47.83
2019-01-20T00:08:14.389Z,51.63
2019-01-20T00:10:43.376Z,51.10
2019-01-20T00:13:12.202Z,46.33
2019-01-20T00:15:41.660Z,49.97
2019-01-20T00:18:10.483Z,46.93
2019-01-20T00:20:39.672Z,47.87
2019-01-20T00:23:08.375Z,40.50
2019-01-20T00:25:37.162Z,44.20
2019-01-20T00:28:06.052Z,39.20
2019-01-20T00:30:34.858Z,39.80
2019-01-20T00:33:04.416Z,43.00
2019-01-20T00:35:33.215Z,39.87
2019-01-20T00:38:01.955Z,38.50
2019-01-20T00:40:31.026Z,42.70
2019-01-20T00:42:59.810Z,39.53
2019-01-20T00:45:28.632Z,44.50
2019-01-20T00:47:57.465Z,43.87
2019-01-20T00:50:26.651Z,43.60
2019-01-20T00:52:55.303Z,44.00
2019-01-20T00:55:23.982Z,40.70
2019-01-20T00:57:52.827Z,47.17
2019-01-20T01:00:26.085Z,45.17
2019-01-20T01:02:54.770Z,47.67
2019-01-20T01:05:23.758Z,41.47
2019-01-20T01:07:52.587Z,41.00
2019-01-20T01:10:21.564Z,43.33
2019-01-20T01:12:51.315Z,42.30
2019-01-20T01:15:20.207Z,39.07
2019-01-20T01:17:49.506Z,41.80
2019-01-20T01:20:18.519Z,40.03
2019-01-20T01:22:47.414Z,38.13
2019-01-20T01:25:16.976Z,46.00
2019-01-20T01:27:46.535Z,41.03
2019-01-20T01:30:16.827Z,46.47
2019-01-20T01:32:45.505Z,39.97
2019-01-20T01:35:14.642Z,42.17
2019-01-20T01:37:43.906Z,40.53
2019-01-20T01:40:13.108Z,37.30
2019-01-20T01:42:42.361Z,35.47
2019-01-20T01:45:12.555Z,38.50
2019-01-20T01:47:41.309Z,34.07
2019-01-20T01:50:10.608Z,38.83
2019-01-20T01:52:39.666Z,37.07
2019-01-20T01:55:08.959Z,36.00
2019-01-20T01:57:37.752Z,36.53
2019-01-20T02:00:08.610Z,33.87
2019-01-20T02:02:37.656Z,32.83
2019-01-20T02:05:06.850Z,31.47
2019-01-20T02:07:35.638Z,39.03
2019-01-20T02:10:05.005Z,32.17
2019-01-20T02:12:33.699Z,32.60
2019-01-20T02:15:02.604Z,33.90
2019-01-20T02:17:31.354Z,34.40
2019-01-20T02:20:00.376Z,34.47
2019-01-20T02:22:29.022Z,34.83
2019-01-20T02:24:57.652Z,31.63
2019-01-20T02:27:26.287Z,32.33
2019-01-20T02:29:55.311Z,36.00
2019-01-20T02:32:23.968Z,34.60
2019-01-20T02:34:52.600Z,37.50
2019-01-20T02:37:21.800Z,38.43
2019-01-20T02:39:50.838Z,34.57
2019-01-20T02:42:19.766Z,36.30
2019-01-20T02:44:48.520Z,31.43
2019-01-20T02:47:17.153Z,34.23
2019-01-20T02:49:45.798Z,32.13
2019-01-20T02:52:14.803Z,28.80
2019-01-20T02:54:43.468Z,32.93
2019-01-20T02:57:12.475Z,36.50
2019-01-20T02:59:41.123Z,29.27
2019-01-20T03:02:09.059Z,31.43
2019-01-20T03:04:38.090Z,33.53
2019-01-20T03:07:07.410Z,32.70
2019-01-20T03:09:36.448Z,27.03
2019-01-20T03:12:05.096Z,32.57
2019-01-20T03:14:33.730Z,33.83
2019-01-20T03:17:02.647Z,32.30
2019-01-20T03:19:31.990Z,31.33
2019-01-20T03:22:01.002Z,32.70
2019-01-20T03:24:30.033Z,32.00
2019-01-20T03:26:59.061Z,34.43
2019-01-20T03:29:28.092Z,31.57
2019-01-20T03:31:56.742Z,31.27
2019-01-20T03:34:25.658Z,34.10
2019-01-20T03:36:54.409Z,36.20
2019-01-20T03:39:23.050Z,34.47
2019-01-20T03:41:51.881Z,36.87
2019-01-20T03:44:20.514Z,32.87
2019-01-20T03:46:49.331Z,34.80
2019-01-20T03:49:18.269Z,36.57
2019-01-20T03:51:47.582Z,37.43
2019-01-20T03:54:16.250Z,31.10
2019-01-20T03:56:45.230Z,33.43
2019-01-20T03:59:13.916Z,33.50
2019-01-20T04:01:42.543Z,34.47
2019-01-20T04:04:11.475Z,31.03
2019-01-20T04:06:40.207Z,29.27
2019-01-20T04:09:09.417Z,31.63
2019-01-20T04:11:38.078Z,29.60
2019-01-20T04:14:06.733Z,28.57
2019-01-20T04:16:35.551Z,29.27
2019-01-20T04:19:04.558Z,34.00
2019-01-20T04:21:33.208Z,26.30
2019-01-20T04:24:02.225Z,28.57
2019-01-20T04:26:30.891Z,27.00
2019-01-20T04:28:59.865Z,28.00
2019-01-20T04:31:28.919Z,24.60
2019-01-20T04:33:57.947Z,26.03
2019-01-20T04:36:26.598Z,29.40
2019-01-20T04:38:55.927Z,27.00
2019-01-20T04:41:24.744Z,26.80
2019-01-20T04:43:54.182Z,26.63
2019-01-20T04:46:23.578Z,29.10
2019-01-20T04:48:52.719Z,30.17
2019-01-20T04:51:22.044Z,30.20
2019-01-20T04:53:52.111Z,28.50
2019-01-20T04:56:21.340Z,29.70
2019-01-20T04:58:50.073Z,26.27
2019-01-20T05:01:19.927Z,31.30
2019-01-20T05:03:48.870Z,30.70
2019-01-20T05:06:17.805Z,32.43
2019-01-20T05:08:46.555Z,30.40
2019-01-20T05:11:15.183Z,26.50
2019-01-20T05:13:44.326Z,33.07
2019-01-20T05:16:13.422Z,29.80
2019-01-20T05:18:42.692Z,29.50
2019-01-20T05:21:11.307Z,29.30
2019-01-20T05:23:39.947Z,30.60
2019-01-20T05:26:09.142Z,26.53
2019-01-20T05:28:37.810Z,29.77
2019-01-20T05:31:06.439Z,29.83
2019-01-20T05:33:35.454Z,26.67
2019-01-20T05:36:04.611Z,28.27
2019-01-20T05:38:33.334Z,34.93
2019-01-20T05:41:02.532Z,28.70
2019-01-20T05:43:31.670Z,26.93
2019-01-20T05:46:00.394Z,29.37
2019-01-20T05:48:29.329Z,30.83
2019-01-20T05:50:58.087Z,34.27
2019-01-20T05:53:26.718Z,37.63
2019-01-20T05:55:55.735Z,34.17
2019-01-20T05:58:24.399Z,37.37
2019-01-20T06:00:53.024Z,38.13
2019-01-20T06:03:21.939Z,51.00
2019-01-20T06:05:51.062Z,42.37
2019-01-20T06:08:20.295Z,45.37
2019-01-20T06:10:49.519Z,44.87
2019-01-20T06:13:18.696Z,39.73
2019-01-20T06:15:47.489Z,44.83
2019-01-20T06:18:16.805Z,41.70
2019-01-20T06:20:45.484Z,43.27
2019-01-20T06:23:14.679Z,47.10
2019-01-20T06:25:43.559Z,43.30
2019-01-20T06:28:12.739Z,49.07
2019-01-20T06:30:41.422Z,40.90
2019-01-20T06:33:10.787Z,49.47
2019-01-20T06:35:39.847Z,42.90
2019-01-20T06:38:08.999Z,43.50
2019-01-20T06:40:37.974Z,45.13
2019-01-20T06:43:06.770Z,46.73
2019-01-20T06:45:36.324Z,42.10
2019-01-20T06:48:05.484Z,41.00
2019-01-20T06:50:34.690Z,38.97
2019-01-20T06:53:03.816Z,30.63
2019-01-20T06:55:32.521Z,35.53
2019-01-20T06:58:01.685Z,30.03
2019-01-20T07:00:30.711Z,31.37
2019-01-20T07:02:59.396Z,34.60
2019-01-20T07:05:28.249Z,30.67
2019-01-20T07:07:57.400Z,29.53
2019-01-20T07:10:26.130Z,29.83
2019-01-20T07:12:54.887Z,34.40
2019-01-20T07:15:25.036Z,30.33
2019-01-20T07:17:54.317Z,30.40
2019-01-20T07:20:23.005Z,28.77
2019-01-20T07:22:52.359Z,30.33
2019-01-20T07:25:21.708Z,32.20
2019-01-20T07:27:50.851Z,33.80
2019-01-20T07:30:23.658Z,27.40
2019-01-20T07:32:52.491Z,30.97
2019-01-20T07:35:21.629Z,28.47
2019-01-20T07:37:50.396Z,33.03
2019-01-20T07:40:20.208Z,29.37
2019-01-20T07:42:49.333Z,29.83
2019-01-20T07:45:18.317Z,33.00
2019-01-20T07:47:47.077Z,28.90
2019-01-20T07:50:17.179Z,30.90
2019-01-20T07:52:46.231Z,27.93
2019-01-20T07:55:15.355Z,31.77
2019-01-20T07:57:44.104Z,35.97
2019-01-20T08:00:14.001Z,30.93
2019-01-20T08:02:42.751Z,34.70
2019-01-20T08:05:11.691Z,28.47
2019-01-20T08:07:40.442Z,30.30
2019-01-20T08:10:11.303Z,32.17
2019-01-20T08:12:40.055Z,35.80
2019-01-20T08:15:09.869Z,32.30
2019-01-20T08:17:39.274Z,36.83
2019-01-20T08:20:09.667Z,31.83
2019-01-20T08:22:38.716Z,27.53
2019-01-20T08:25:07.644Z,33.87
2019-01-20T08:27:36.977Z,30.60
2019-01-20T08:30:06.289Z,33.27
2019-01-20T08:32:35.861Z,29.03
2019-01-20T08:35:04.927Z,38.20
2019-01-20T08:37:34.379Z,32.00
2019-01-20T08:40:03.335Z,30.43
2019-01-20T08:42:32.330Z,39.57
2019-01-20T08:45:00.980Z,33.07
2019-01-20T08:47:33.744Z,32.67
2019-01-20T08:50:02.604Z,31.33
2019-01-20T08:52:31.790Z,30.10
2019-01-20T08:55:02.619Z,35.20
2019-01-20T08:57:31.243Z,36.20
2019-01-20T09:00:00.444Z,33.33
2019-01-20T09:02:29.483Z,39.83
2019-01-20T09:04:58.511Z,39.80
2019-01-20T09:07:27.548Z,34.23
2019-01-20T09:09:56.509Z,32.43
2019-01-20T09:12:25.457Z,40.57
2019-01-20T09:14:54.100Z,36.10
2019-01-20T09:17:23.269Z,34.43
2019-01-20T09:19:52.289Z,36.87
2019-01-20T09:22:21.226Z,37.80
2019-01-20T09:24:49.995Z,40.57
2019-01-20T09:27:18.827Z,35.70
2019-01-20T09:29:47.826Z,36.93
2019-01-20T09:32:16.485Z,36.53
2019-01-20T09:34:45.497Z,30.77
2019-01-20T09:37:14.712Z,33.53
2019-01-20T09:39:43.939Z,37.20
2019-01-20T09:42:12.610Z,36.77
2019-01-20T09:44:41.459Z,30.40
2019-01-20T09:47:10.282Z,29.87
2019-01-20T09:49:39.108Z,27.20
2019-01-20T09:52:08.216Z,34.23
2019-01-20T09:54:37.392Z,30.93
2019-01-20T09:57:06.217Z,30.87
2019-01-20T09:59:35.589Z,31.20
2019-01-20T10:02:04.979Z,36.50
2019-01-20T10:04:34.234Z,31.47
2019-01-20T10:07:03.156Z,32.13
2019-01-20T10:09:31.990Z,31.87
2019-01-20T10:12:00.933Z,35.43
2019-01-20T10:14:30.013Z,31.23
2019-01-20T10:16:58.870Z,28.60
2019-01-20T10:19:28.222Z,32.20
2019-01-20T10:21:57.255Z,34.77
2019-01-20T10:24:26.152Z,30.63
2019-01-20T10:26:54.987Z,31.57
2019-01-20T10:29:23.859Z,29.40
2019-01-20T10:31:52.627Z,32.60
2019-01-20T10:34:22.593Z,26.43
2019-01-20T10:36:51.483Z,28.03
2019-01-20T10:39:20.462Z,29.77
2019-01-20T10:41:49.495Z,31.13
2019-01-20T10:44:18.156Z,33.33
2019-01-20T10:46:46.988Z,28.33
2019-01-20T10:49:16.019Z,25.20
2019-01-20T10:51:45.423Z,23.47
2019-01-20T10:54:14.652Z,27.07
2019-01-20T10:56:43.415Z,29.90
2019-01-20T10:59:12.422Z,21.80
2019-01-20T11:01:41.373Z,32.63
2019-01-20T11:04:10.231Z,27.27
2019-01-20T11:06:39.210Z,29.87
2019-01-20T11:09:08.374Z,27.00
2019-01-20T11:11:37.658Z,23.33
2019-01-20T11:14:09.611Z,23.60
2019-01-20T11:16:37.495Z,25.97
2019-01-20T11:19:06.516Z,25.73
2019-01-20T11:21:35.477Z,25.10
2019-01-20T11:24:04.683Z,26.43
2019-01-20T11:26:33.857Z,26.17
2019-01-20T11:29:03.334Z,28.93
2019-01-20T11:31:32.759Z,23.53
2019-01-20T11:34:01.559Z,28.27
2019-01-20T11:36:30.342Z,26.70
2019-01-20T11:38:59.727Z,24.30
2019-01-20T11:41:28.610Z,24.00
2019-01-20T11:43:57.731Z,22.43
2019-01-20T11:46:26.939Z,22.63
2019-01-20T11:48:55.898Z,23.17
2019-01-20T11:51:25.265Z,21.33
2019-01-20T11:53:54.519Z,18.23
2019-01-20T11:56:23.828Z,20.30
2019-01-20T11:58:52.968Z,21.77
2019-01-20T12:01:21.881Z,19.50
2019-01-20T12:03:50.692Z,19.33
2019-01-20T12:06:19.706Z,22.77
2019-01-20T12:08:48.694Z,18.53
2019-01-20T12:11:17.908Z,20.83
2019-01-20T12:13:46.874Z,19.90
2019-01-20T12:16:15.980Z,21.20
2019-01-20T12:18:45.297Z,19.10
2019-01-20T12:21:14.739Z,19.60
2019-01-20T12:23:43.548Z,16.40
2019-01-20T12:26:12.543Z,21.70
2019-01-20T12:28:41.897Z,19.37
2019-01-20T12:31:10.733Z,18.13
2019-01-20T12:33:39.794Z,18.50
2019-01-20T12:36:08.707Z,19.47
2019-01-20T12:38:37.614Z,17.73
2019-01-20T12:41:06.371Z,17.17
2019-01-20T12:43:35.599Z,18.83
2019-01-20T12:46:04.750Z,21.47
2019-01-20T12:48:33.579Z,18.33
2019-01-20T12:51:02.719Z,22.20
2019-01-20T12:53:31.517Z,21.07
2019-01-20T12:56:00.415Z,21.43
2019-01-20T12:58:29.861Z,21.23
2019-01-20T13:00:58.919Z,21.00
2019-01-20T13:03:28.314Z,19.50
2019-01-20T13:05:57.290Z,17.33
2019-01-20T13:08:26.666Z,19.90
2019-01-20T13:10:55.469Z,19.77
2019-01-20T13:13:24.261Z,20.73
2019-01-20T13:15:52.900Z,20.70
2019-01-20T13:18:21.906Z,21.43
2019-01-20T13:20:51.911Z,17.53
2019-01-20T13:23:20.750Z,16.37
2019-01-20T13:25:49.414Z,17.93
2019-01-20T13:28:18.228Z,19.40
2019-01-20T13:30:47.157Z,21.23
2019-01-20T13:33:15.918Z,15.50
2019-01-20T13:35:44.755Z,18.43
2019-01-20T13:38:15.278Z,18.87
2019-01-20T13:40:45.496Z,17.00
2019-01-20T13:43:14.681Z,17.00
2019-01-20T13:45:43.790Z,14.10
2019-01-20T13:48:12.824Z,16.13
2019-01-20T13:50:41.760Z,16.47
2019-01-20T13:53:11.070Z,21.67
2019-01-20T13:55:40.115Z,18.63
2019-01-20T13:58:09.231Z,16.50
2019-01-20T14:00:38.011Z,15.23
2019-01-20T14:03:06.830Z,20.20
2019-01-20T14:05:36.022Z,19.63
2019-01-20T14:08:05.057Z,20.10
2019-01-20T14:10:34.277Z,19.00
2019-01-20T14:13:02.942Z,22.63
2019-01-20T14:15:31.962Z,17.87
2019-01-20T14:18:01.179Z,20.10
2019-01-20T14:20:29.834Z,23.23
2019-01-20T14:22:58.742Z,21.10
2019-01-20T14:25:27.478Z,24.77
2019-01-20T14:27:56.700Z,21.27
2019-01-20T14:30:29.542Z,24.60
2019-01-20T14:32:58.341Z,26.77
2019-01-20T14:35:27.442Z,24.97
2019-01-20T14:37:56.759Z,22.53
2019-01-20T14:40:26.181Z,26.13
2019-01-20T14:42:55.217Z,24.93
2019-01-20T14:45:24.171Z,23.80
2019-01-20T14:47:53.270Z,23.73
2019-01-20T14:50:23.351Z,22.90
2019-01-20T14:52:52.420Z,20.57
2019-01-20T14:55:21.474Z,19.90
2019-01-20T14:57:50.277Z,24.20
2019-01-20T15:00:23.402Z,20.77
2019-01-20T15:02:52.207Z,21.27
2019-01-20T15:05:21.394Z,22.83
2019-01-20T15:07:50.055Z,21.40
2019-01-20T15:10:19.695Z,25.77
2019-01-20T15:12:48.311Z,24.90
2019-01-20T15:15:19.974Z,21.83
2019-01-20T15:17:48.743Z,22.20
2019-01-20T15:20:17.872Z,19.77
2019-01-20T15:22:46.880Z,22.73
2019-01-20T15:25:16.288Z,28.37
2019-01-20T15:27:45.046Z,19.00
2019-01-20T15:30:23.885Z,22.07
2019-01-20T15:32:52.541Z,21.00
2019-01-20T15:35:22.161Z,18.23
2019-01-20T15:37:51.232Z,22.53
2019-01-20T15:40:20.133Z,22.23
2019-01-20T15:42:48.895Z,24.23
2019-01-20T15:45:18.131Z,21.23
2019-01-20T15:47:53.867Z,22.77
2019-01-20T15:50:23.394Z,22.37
2019-01-20T15:52:52.046Z,24.70
2019-01-20T15:55:21.250Z,21.63
2019-01-20T15:57:49.943Z,25.87
2019-01-20T16:00:19.786Z,23.83
2019-01-20T16:02:48.554Z,25.33
2019-01-20T16:05:17.862Z,24.10
2019-01-20T16:07:47.187Z,20.40
2019-01-20T16:10:16.633Z,27.43
2019-01-20T16:12:45.479Z,25.37
2019-01-20T16:15:24.327Z,31.40
2019-01-20T16:17:49.566Z,23.30
2019-01-20T16:20:18.319Z,23.57
2019-01-20T16:22:46.941Z,19.20
2019-01-20T16:25:16.770Z,23.87
2019-01-20T16:27:45.328Z,24.37
2019-01-20T16:30:15.343Z,27.43
2019-01-20T16:32:44.871Z,28.20
2019-01-20T16:35:25.726Z,20.60
2019-01-20T16:37:54.192Z,25.50
2019-01-20T16:40:23.848Z,24.43
2019-01-20T16:42:52.976Z,26.67
2019-01-20T16:45:22.998Z,31.87
2019-01-20T16:47:51.752Z,35.10
2019-01-20T16:50:21.166Z,33.90
2019-01-20T16:52:54.498Z,28.37
2019-01-20T16:55:19.778Z,31.13
2019-01-20T16:57:48.266Z,36.17
2019-01-20T17:00:21.451Z,32.20
2019-01-20T17:02:49.964Z,36.13
2019-01-20T17:05:18.787Z,35.70
2019-01-20T17:07:47.411Z,33.80
2019-01-20T17:10:17.303Z,34.53
2019-01-20T17:12:45.811Z,34.20
2019-01-20T17:15:16.045Z,33.80
2019-01-20T17:17:44.372Z,32.37
2019-01-20T17:20:12.859Z,30.73
2019-01-20T17:22:45.456Z,36.80
2019-01-20T17:25:14.266Z,31.87
2019-01-20T17:27:42.698Z,35.57
2019-01-20T17:30:12.882Z,36.50
2019-01-20T17:32:41.322Z,33.37
2019-01-20T17:35:10.278Z,32.43
2019-01-20T17:37:38.749Z,33.37
2019-01-20T17:40:08.299Z,33.83
2019-01-20T17:42:36.751Z,34.80
2019-01-20T17:45:05.562Z,30.10
2019-01-20T17:47:33.987Z,31.73
2019-01-20T17:50:02.325Z,31.63
2019-01-20T17:52:30.787Z,35.27
2019-01-20T17:54:59.235Z,38.30
2019-01-20T17:57:27.767Z,36.50
2019-01-20T17:59:56.167Z,36.60
2019-01-20T18:02:29.852Z,40.03
2019-01-20T18:04:58.189Z,37.13
2019-01-20T18:07:26.491Z,38.93
2019-01-20T18:09:54.921Z,36.03
2019-01-20T18:12:23.248Z,34.40
2019-01-20T18:14:51.626Z,34.10
2019-01-20T18:17:19.958Z,36.53
2019-01-20T18:19:48.278Z,39.93
2019-01-20T18:22:16.748Z,35.57
2019-01-20T18:24:45.138Z,38.73
2019-01-20T18:27:13.480Z,35.53
2019-01-20T18:29:41.908Z,33.80
2019-01-20T18:32:10.383Z,35.83
2019-01-20T18:34:38.734Z,32.97
2019-01-20T18:37:07.092Z,30.00
2019-01-20T18:39:35.534Z,32.77
2019-01-20T18:42:03.911Z,36.73
2019-01-20T18:44:32.343Z,33.03
2019-01-20T18:47:00.728Z,35.63
2019-01-20T18:49:29.418Z,36.73
2019-01-20T18:51:58.066Z,35.57
2019-01-20T18:54:26.647Z,33.80
2019-01-20T18:56:55.463Z,32.33
2019-01-20T18:59:24.461Z,34.37
2019-01-20T19:01:52.836Z,33.93
2019-01-20T19:04:21.678Z,43.50
2019-01-20T19:06:50.883Z,38.33
2019-01-20T19:09:19.586Z,38.83
2019-01-20T19:11:48.959Z,40.00
2019-01-20T19:14:18.004Z,37.40
2019-01-20T19:16:47.019Z,37.97
2019-01-20T19:19:16.867Z,38.13
2019-01-20T19:21:46.063Z,36.90
2019-01-20T19:24:15.147Z,36.33
2019-01-20T19:26:45.303Z,34.37
2019-01-20T19:29:14.259Z,35.10
2019-01-20T19:31:43.522Z,37.53
2019-01-20T19:34:13.877Z,39.43
2019-01-20T19:36:42.705Z,36.80
2019-01-20T19:39:11.508Z,36.50
2019-01-20T19:41:40.566Z,36.03
2019-01-20T19:44:09.812Z,38.80
2019-01-20T19:46:38.919Z,40.20
2019-01-20T19:49:08.062Z,35.60
2019-01-20T19:51:37.088Z,33.63
2019-01-20T19:54:06.392Z,38.77
2019-01-20T19:56:35.073Z,34.43
2019-01-20T19:59:03.913Z,35.50
2019-01-20T20:01:33.131Z,38.20
2019-01-20T20:04:02.131Z,33.13
2019-01-20T20:06:31.781Z,31.53
2019-01-20T20:09:01.160Z,35.67
2019-01-20T20:11:29.846Z,37.10
2019-01-20T20:13:58.735Z,31.70
2019-01-20T20:16:27.504Z,32.20
2019-01-20T20:18:56.354Z,30.10
2019-01-20T20:21:25.157Z,30.57
2019-01-20T20:23:54.006Z,32.07
2019-01-20T20:26:22.404Z,33.60
2019-01-20T20:28:51.080Z,26.27
2019-01-20T20:31:19.933Z,32.30
2019-01-20T20:33:48.735Z,29.30
2019-01-20T20:36:18.521Z,33.03
2019-01-20T20:38:47.941Z,29.73
2019-01-20T20:41:16.657Z,32.27
2019-01-20T20:43:45.609Z,29.87
2019-01-20T20:46:14.669Z,32.07
2019-01-20T20:48:43.518Z,30.97
2019-01-20T20:51:12.702Z,29.17
2019-01-20T20:53:41.923Z,28.87
2019-01-20T20:56:10.595Z,29.90
2019-01-20T20:58:39.425Z,31.67
2019-01-20T21:01:08.340Z,32.30
2019-01-20T21:03:37.846Z,34.53
2019-01-20T21:06:06.285Z,31.87
2019-01-20T21:08:34.631Z,30.67
2019-01-20T21:11:04.061Z,30.33
2019-01-20T21:13:32.834Z,30.27
2019-01-20T21:16:01.647Z,33.93
2019-01-20T21:18:30.477Z,29.70
2019-01-20T21:20:59.320Z,29.30
2019-01-20T21:23:28.150Z,28.57
2019-01-20T21:25:57.345Z,28.13
2019-01-20T21:28:26.029Z,25.90
2019-01-20T21:30:54.843Z,27.80
2019-01-20T21:33:23.477Z,26.00
2019-01-20T21:35:52.676Z,27.67
2019-01-20T21:38:21.359Z,29.23
2019-01-20T21:40:50.446Z,29.57
2019-01-20T21:43:19.359Z,31.37
2019-01-20T21:45:48.050Z,28.70
2019-01-20T21:48:16.873Z,29.40
2019-01-20T21:50:45.695Z,26.27
2019-01-20T21:53:14.534Z,28.97
2019-01-20T21:55:43.447Z,24.27
2019-01-20T21:58:11.996Z,31.50
2019-01-20T22:00:41.020Z,28.90
2019-01-20T22:03:09.682Z,29.90
2019-01-20T22:05:38.026Z,29.27
2019-01-20T22:08:06.366Z,27.57
2019-01-20T22:10:34.750Z,25.80
2019-01-20T22:13:03.416Z,32.20
2019-01-20T22:15:32.318Z,26.63
2019-01-20T22:18:01.107Z,35.87
2019-01-20T22:20:29.934Z,30.40
2019-01-20T22:22:59.329Z,39.03
2019-01-20T22:25:28.276Z,35.10
2019-01-20T22:27:57.297Z,42.20
2019-01-20T22:30:27.399Z,39.00
2019-01-20T22:32:56.731Z,38.27
2019-01-20T22:35:25.866Z,39.23
2019-01-20T22:37:54.883Z,43.67
2019-01-20T22:40:23.722Z,37.57
2019-01-20T22:42:52.388Z,33.57
2019-01-20T22:45:24.595Z,41.33
2019-01-20T22:47:53.662Z,39.73
2019-01-20T22:50:22.088Z,36.83
2019-01-20T22:52:50.480Z,41.43
2019-01-20T22:55:18.833Z,40.27
2019-01-20T22:57:47.671Z,38.50
2019-01-20T23:00:24.729Z,34.43
2019-01-20T23:02:53.151Z,37.27
2019-01-20T23:05:21.503Z,35.83
2019-01-20T23:07:49.842Z,35.90
2019-01-20T23:10:18.187Z,33.07
2019-01-20T23:12:47.200Z,36.80
2019-01-20T23:15:15.883Z,37.73
2019-01-20T23:17:44.693Z,36.77
2019-01-20T23:20:14.223Z,35.10
2019-01-20T23:22:42.958Z,35.10
2019-01-20T23:25:11.959Z,33.93
2019-01-20T23:27:40.961Z,34.73
2019-01-20T23:30:10.378Z,33.83
2019-01-20T23:32:38.714Z,31.47
2019-01-20T23:35:07.159Z,26.63
2019-01-20T23:37:35.611Z,23.00
2019-01-20T23:40:04.666Z,24.67
2019-01-20T23:42:33.021Z,27.03
2019-01-20T23:45:01.366Z,36.37
2019-01-20T23:47:29.991Z,32.77
2019-01-20T23:49:58.322Z,37.77
2019-01-20T23:52:26.702Z,41.63
2019-01-20T23:54:55.023Z,41.47
2019-01-20T23:57:23.456Z,38.60
2019-01-20T23:59:51.887Z,36.63
